createdAt,value
2022-09-15T00:01:56.468Z,24.01
2022-09-15T00:04:56.396Z,24.03
2022-09-15T00:06:56.380Z,23.96
2022-09-15T00:08:56.407Z,23.96
2022-09-15T00:10:56.817Z,24
2022-09-15T00:12:57.219Z,23.97
2022-09-15T00:15:57.202Z,23.96
2022-09-15T00:18:56.392Z,23.99
2022-09-15T00:20:57.017Z,24.01
2022-09-15T00:23:57.225Z,23.96
2022-09-15T00:26:56.556Z,23.96
2022-09-15T00:29:56.424Z,23.93
2022-09-15T00:32:56.415Z,23.92
2022-09-15T00:34:56.759Z,23.96
2022-09-15T00:37:56.436Z,23.97
2022-09-15T00:40:57.181Z,23.97
2022-09-15T00:43:56.898Z,24
2022-09-15T00:47:15.521Z,23.96
2022-09-15T00:49:59.139Z,23.95
2022-09-15T00:51:56.399Z,23.93
2022-09-15T00:53:56.777Z,23.93
2022-09-15T00:56:56.384Z,23.91
2022-09-15T00:58:56.429Z,23.92
2022-09-15T01:01:56.427Z,23.93
2022-09-15T01:03:56.397Z,23.95
2022-09-15T01:06:56.397Z,23.91
2022-09-15T01:08:56.397Z,23.87
2022-09-15T01:11:56.400Z,23.86
2022-09-15T01:13:56.415Z,23.88
2022-09-15T01:16:55.555Z,23.8
2022-09-15T01:18:56.406Z,23.83
2022-09-15T01:20:56.525Z,23.84
2022-09-15T01:23:56.417Z,23.87
2022-09-15T01:25:56.875Z,23.84
2022-09-15T01:28:56.412Z,23.79
2022-09-15T01:31:56.451Z,23.82
2022-09-15T01:33:56.956Z,23.82
2022-09-15T01:36:56.408Z,23.83
2022-09-15T01:40:56.419Z,23.78
2022-09-15T01:42:57.169Z,23.68
2022-09-15T01:45:56.456Z,23.62
2022-09-15T01:47:56.845Z,23.66
2022-09-15T01:50:56.444Z,23.64
2022-09-15T01:52:56.746Z,23.68
2022-09-15T01:55:56.412Z,23.6
2022-09-15T01:57:56.515Z,23.63
2022-09-15T01:59:57.362Z,23.57
2022-09-15T02:03:56.440Z,23.58
2022-09-15T02:05:56.512Z,23.53
2022-09-15T02:07:57.117Z,23.53
2022-09-15T02:10:56.677Z,23.45
2022-09-15T02:15:56.478Z,23.36
2022-09-15T02:18:56.869Z,23.46
2022-09-15T02:21:56.467Z,23.57
2022-09-15T02:25:56.787Z,23.57
2022-09-15T02:28:56.421Z,23.52
2022-09-15T02:33:56.454Z,23.51
2022-09-15T02:35:56.946Z,23.56
2022-09-15T02:38:56.508Z,23.48
2022-09-15T02:41:56.421Z,23.34
2022-09-15T02:43:57.154Z,23.33
2022-09-15T02:47:56.458Z,23.43
2022-09-15T02:49:56.469Z,23.45
2022-09-15T02:52:56.456Z,23.48
2022-09-15T02:54:56.458Z,23.49
2022-09-15T02:57:55.545Z,23.51
2022-09-15T02:59:57.481Z,23.53
2022-09-15T03:01:56.522Z,23.46
2022-09-15T03:03:56.948Z,23.48
2022-09-15T03:06:56.473Z,23.44
2022-09-15T03:08:56.515Z,23.39
2022-09-15T03:10:57.071Z,23.39
2022-09-15T03:13:56.475Z,23.41
2022-09-15T03:15:57.138Z,23.41
2022-09-15T03:18:57.049Z,23.45
2022-09-15T03:21:56.972Z,23.43
2022-09-15T03:24:56.968Z,23.38
2022-09-15T03:27:56.489Z,23.38
2022-09-15T03:30:57.352Z,23.24
2022-09-15T03:33:56.888Z,23.25
2022-09-15T03:36:56.474Z,23.28
2022-09-15T03:39:56.535Z,23.39
2022-09-15T03:41:56.489Z,23.39
2022-09-15T03:43:56.534Z,23.35
2022-09-15T03:45:56.658Z,23.31
2022-09-15T03:48:56.915Z,23.24
2022-09-15T03:51:56.481Z,23.16
2022-09-15T03:54:00.202Z,23.18
2022-09-15T03:57:00.231Z,23.1
2022-09-15T04:00:00.214Z,23.09
2022-09-15T04:02:00.382Z,23.09
2022-09-15T04:05:00.228Z,23.08
2022-09-15T04:07:00.216Z,23.1
2022-09-15T04:10:00.257Z,23.11
2022-09-15T04:13:00.190Z,23.11
2022-09-15T04:15:00.238Z,23.13
2022-09-15T04:18:00.209Z,23.15
2022-09-15T04:20:00.258Z,23.2
2022-09-15T04:23:01.029Z,23.21
2022-09-15T04:26:00.236Z,23.22
2022-09-15T04:28:00.241Z,23.27
2022-09-15T04:30:00.256Z,23.33
2022-09-15T04:33:00.193Z,23.36
2022-09-15T04:35:00.212Z,23.35
2022-09-15T04:38:00.220Z,23.37
2022-09-15T04:40:00.311Z,23.36
2022-09-15T04:43:00.193Z,23.34
2022-09-15T04:45:00.196Z,23.39
2022-09-15T04:47:00.311Z,23.43
2022-09-15T04:50:00.253Z,23.45
2022-09-15T04:53:00.202Z,23.47
2022-09-15T04:55:00.210Z,23.45
2022-09-15T04:57:00.230Z,23.43
2022-09-15T05:00:00.250Z,23.41
2022-09-15T05:03:00.189Z,23.4
2022-09-15T05:06:00.261Z,23.31
2022-09-15T05:09:00.184Z,23.29
2022-09-15T05:11:00.271Z,23.28
2022-09-15T05:14:00.215Z,23.36
2022-09-15T05:17:00.215Z,23.43
2022-09-15T05:20:00.879Z,23.49
2022-09-15T05:23:00.224Z,23.53
2022-09-15T05:26:05.170Z,23.56
2022-09-15T05:29:00.246Z,23.56
2022-09-15T05:31:00.318Z,23.56
2022-09-15T05:34:00.240Z,23.54
2022-09-15T05:36:00.237Z,23.55
2022-09-15T05:39:00.319Z,23.54
2022-09-15T05:42:00.236Z,23.5
2022-09-15T05:45:00.260Z,23.51
2022-09-15T05:48:00.218Z,23.5
2022-09-15T05:50:00.238Z,23.52
2022-09-15T05:53:00.251Z,23.48
2022-09-15T05:55:00.274Z,23.42
2022-09-15T05:57:00.265Z,23.36
2022-09-15T05:59:00.321Z,23.34
2022-09-15T06:02:00.245Z,23.36
2022-09-15T06:05:00.261Z,23.31
2022-09-15T06:08:00.238Z,23.2
2022-09-15T06:11:00.313Z,23.12
2022-09-15T06:13:00.861Z,23.09
2022-09-15T06:16:00.342Z,23.13
2022-09-15T06:19:00.260Z,23.18
2022-09-15T06:22:00.244Z,23.18
2022-09-15T06:25:00.265Z,23.23
2022-09-15T06:28:00.249Z,23.14
2022-09-15T06:30:00.276Z,23.15
2022-09-15T06:33:00.230Z,23.12
2022-09-15T06:35:00.247Z,23.09
2022-09-15T06:38:00.225Z,23.03
2022-09-15T06:40:00.380Z,23.03
2022-09-15T06:43:00.312Z,23.01
2022-09-15T06:46:00.348Z,22.83
2022-09-15T06:48:20.549Z,22.77
2022-09-15T06:51:00.233Z,22.72
2022-09-15T06:53:00.228Z,22.7
2022-09-15T06:55:00.260Z,22.71
2022-09-15T06:58:00.220Z,22.69
2022-09-15T07:00:00.287Z,22.7
2022-09-15T07:03:00.375Z,22.6
2022-09-15T07:05:00.249Z,22.58
2022-09-15T07:08:00.530Z,22.63
2022-09-15T07:11:00.277Z,22.44
2022-09-15T07:13:00.249Z,22.54
2022-09-15T07:16:00.320Z,22.65
2022-09-15T07:18:00.313Z,22.6
2022-09-15T07:21:00.246Z,22.51
2022-09-15T07:23:00.261Z,22.55
2022-09-15T07:25:00.280Z,22.55
2022-09-15T07:28:00.216Z,22.58
2022-09-15T07:30:00.275Z,22.63
2022-09-15T07:33:00.258Z,22.57
2022-09-15T07:35:00.281Z,22.57
2022-09-15T07:37:00.308Z,22.6
2022-09-15T07:40:00.395Z,22.61
2022-09-15T07:43:00.291Z,22.5
2022-09-15T07:46:00.375Z,22.49
2022-09-15T07:49:00.300Z,22.48
2022-09-15T07:51:00.308Z,22.5
2022-09-15T07:54:00.265Z,22.61
2022-09-15T07:57:00.282Z,22.62
2022-09-15T07:59:00.305Z,22.61
2022-09-15T08:01:00.655Z,22.6
2022-09-15T08:04:00.317Z,22.64
2022-09-15T08:07:00.272Z,22.68
2022-09-15T08:10:00.286Z,22.73
2022-09-15T08:12:00.274Z,22.72
2022-09-15T08:15:00.317Z,22.68
2022-09-15T08:17:00.327Z,22.68
2022-09-15T08:20:00.375Z,22.78
2022-09-15T08:23:00.327Z,22.71
2022-09-15T08:25:00.297Z,22.68
2022-09-15T08:27:00.369Z,22.68
2022-09-15T08:30:00.260Z,22.71
2022-09-15T08:33:00.304Z,22.69
2022-09-15T08:35:00.359Z,22.7
2022-09-15T08:37:00.876Z,22.72
2022-09-15T08:40:00.358Z,22.73
2022-09-15T08:43:00.240Z,22.8
2022-09-15T08:45:00.286Z,22.77
2022-09-15T08:48:00.325Z,22.8
2022-09-15T08:51:00.309Z,22.81
2022-09-15T08:53:00.319Z,22.77
2022-09-15T08:56:00.261Z,22.81
2022-09-15T08:58:00.276Z,22.83
2022-09-15T09:01:00.270Z,22.87
2022-09-15T09:03:00.309Z,22.86
2022-09-15T09:06:00.269Z,22.81
2022-09-15T09:09:00.275Z,22.76
2022-09-15T09:11:00.315Z,22.79
2022-09-15T09:14:00.265Z,22.74
2022-09-15T09:16:00.295Z,22.71
2022-09-15T09:18:00.261Z,22.72
2022-09-15T09:20:00.280Z,22.67
2022-09-15T09:22:00.278Z,22.7
2022-09-15T09:25:05.867Z,22.78
2022-09-15T09:27:00.312Z,22.83
2022-09-15T09:30:00.309Z,22.79
2022-09-15T09:33:00.295Z,22.88
2022-09-15T09:35:00.325Z,22.81
2022-09-15T09:37:00.306Z,22.79
2022-09-15T09:40:00.415Z,22.8
2022-09-15T09:42:00.297Z,22.91
2022-09-15T09:45:00.307Z,22.98
2022-09-15T09:48:01.684Z,22.92
2022-09-15T09:51:00.301Z,22.89
2022-09-15T09:54:00.339Z,22.78
2022-09-15T09:56:00.323Z,22.78
2022-09-15T09:59:00.290Z,22.82
2022-09-15T10:02:00.301Z,22.83
2022-09-15T10:05:00.324Z,22.93
2022-09-15T10:08:00.477Z,23.02
2022-09-15T10:11:00.290Z,23.04
2022-09-15T10:14:00.339Z,22.98
2022-09-15T10:17:00.344Z,23.01
2022-09-15T10:19:00.318Z,23.03
2022-09-15T10:22:00.327Z,23.11
2022-09-15T10:25:00.327Z,23.09
2022-09-15T10:27:01.324Z,23.09
2022-09-15T10:30:00.320Z,23.08
2022-09-15T10:33:00.310Z,23.08
2022-09-15T10:35:00.324Z,23.05
2022-09-15T10:38:00.328Z,23.09
2022-09-15T10:40:00.474Z,23.13
2022-09-15T10:43:00.302Z,23.02
2022-09-15T10:46:00.425Z,23.01
2022-09-15T10:48:00.366Z,23
2022-09-15T10:51:00.327Z,23.05
2022-09-15T10:53:00.327Z,23.07
2022-09-15T10:56:00.289Z,23.12
2022-09-15T10:58:00.286Z,23.16
2022-09-15T11:00:00.310Z,23.18
2022-09-15T11:03:00.306Z,23.31
2022-09-15T11:05:00.326Z,23.38
2022-09-15T11:07:00.344Z,23.52
2022-09-15T11:10:00.335Z,23.64
2022-09-15T11:13:00.320Z,23.78
2022-09-15T11:15:00.375Z,23.88
2022-09-15T11:18:00.321Z,24.04
2022-09-15T11:21:00.316Z,24.19
2022-09-15T11:23:00.338Z,24.25
2022-09-15T11:25:00.359Z,24.27
2022-09-15T11:28:00.302Z,24.41
2022-09-15T11:30:00.355Z,24.53
2022-09-15T11:33:00.329Z,24.7
2022-09-15T11:36:00.318Z,24.85
2022-09-15T11:38:00.313Z,24.89
2022-09-15T11:40:00.443Z,24.9
2022-09-15T11:43:00.326Z,24.96
2022-09-15T11:45:00.327Z,25.02
2022-09-15T11:48:00.330Z,25.18
2022-09-15T11:50:00.340Z,25.27
2022-09-15T11:52:00.338Z,25.38
2022-09-15T11:55:00.309Z,25.55
2022-09-15T11:57:01.455Z,25.65
2022-09-15T12:00:00.314Z,25.74
2022-09-15T12:02:00.391Z,25.74
2022-09-15T12:04:00.342Z,25.72
2022-09-15T12:10:00.334Z,25.66
2022-09-15T12:12:00.326Z,25.68
2022-09-15T12:14:00.321Z,25.73
2022-09-15T12:17:00.338Z,25.82
2022-09-15T12:19:01.368Z,25.88
2022-09-15T12:22:00.331Z,25.97
2022-09-15T12:24:00.328Z,26.03
2022-09-15T12:27:00.406Z,26.11
2022-09-15T12:30:00.375Z,26.18
2022-09-15T12:32:00.324Z,26.23
2022-09-15T12:35:00.371Z,26.33
2022-09-15T12:38:00.378Z,26.46
2022-09-15T12:41:00.360Z,26.67
2022-09-15T12:43:00.354Z,26.82
2022-09-15T12:46:00.390Z,26.95
2022-09-15T12:48:00.347Z,26.96
2022-09-15T12:51:00.408Z,26.87
2022-09-15T12:54:00.329Z,26.68
2022-09-15T12:56:00.340Z,26.56
2022-09-15T12:58:00.380Z,26.46
2022-09-15T13:00:00.377Z,26.36
2022-09-15T13:03:00.468Z,26.23
2022-09-15T13:06:00.748Z,26.1
2022-09-15T13:09:00.353Z,26.02
2022-09-15T13:11:00.365Z,25.91
2022-09-15T13:14:00.359Z,25.78
2022-09-15T13:16:00.446Z,25.72
2022-09-15T13:19:00.363Z,25.61
2022-09-15T13:21:00.360Z,25.56
2022-09-15T13:24:00.367Z,25.49
2022-09-15T13:27:00.366Z,25.44
2022-09-15T13:30:00.395Z,25.39
2022-09-15T13:33:00.353Z,25.34
2022-09-15T13:35:03.535Z,25.31
2022-09-15T13:38:12.488Z,25.28
2022-09-15T13:40:00.453Z,25.28
2022-09-15T13:42:00.667Z,25.29
2022-09-15T13:45:00.352Z,25.29
2022-09-15T13:47:00.359Z,25.31
2022-09-15T13:50:00.398Z,25.3
2022-09-15T13:53:00.349Z,25.36
2022-09-15T13:56:00.352Z,25.46
2022-09-15T14:01:00.463Z,25.52
2022-09-15T14:04:00.355Z,25.53
2022-09-15T14:06:00.382Z,25.55
2022-09-15T14:09:00.393Z,25.57
2022-09-15T14:11:00.433Z,25.54
2022-09-15T14:14:00.382Z,25.55
2022-09-15T14:17:00.493Z,25.53
2022-09-15T14:20:00.401Z,25.6
2022-09-15T14:22:00.399Z,25.66
2022-09-15T14:25:00.402Z,25.76
2022-09-15T14:28:00.378Z,25.89
2022-09-15T14:31:00.442Z,26.01
2022-09-15T14:34:00.378Z,26.09
2022-09-15T14:36:00.395Z,26.09
2022-09-15T14:39:00.395Z,26.09
2022-09-15T14:41:01.477Z,26.05
2022-09-15T14:44:00.363Z,26
2022-09-15T14:47:00.407Z,25.91
2022-09-15T14:50:00.397Z,25.83
2022-09-15T14:53:00.388Z,25.74
2022-09-15T14:55:00.458Z,25.71
2022-09-15T14:57:03.552Z,25.68
2022-09-15T15:00:00.405Z,25.65
2022-09-15T15:03:00.396Z,25.58
2022-09-15T15:05:00.412Z,25.51
2022-09-15T15:08:00.384Z,25.49
2022-09-15T15:10:00.415Z,25.5
2022-09-15T15:13:00.381Z,25.43
2022-09-15T15:15:00.428Z,25.39
2022-09-15T15:18:00.395Z,25.37
2022-09-15T15:21:00.386Z,25.33
2022-09-15T15:23:00.376Z,25.35
2022-09-15T15:26:00.422Z,25.32
2022-09-15T15:28:00.438Z,25.33
2022-09-15T15:30:00.913Z,25.32
2022-09-15T15:33:00.372Z,25.25
2022-09-15T15:35:00.381Z,25.23
2022-09-15T15:37:00.406Z,25.22
2022-09-15T15:40:00.501Z,25.22
2022-09-15T15:43:00.420Z,25.22
2022-09-15T15:46:00.497Z,25.18
2022-09-15T15:48:00.429Z,25.23
2022-09-15T15:51:00.409Z,25.28
2022-09-15T15:53:00.385Z,25.32
2022-09-15T15:55:00.403Z,25.28
2022-09-15T15:58:00.405Z,25.25
2022-09-15T16:00:00.472Z,25.22
2022-09-15T16:03:00.398Z,25.18
2022-09-15T16:06:00.428Z,25.17
2022-09-15T16:08:00.661Z,25.19
2022-09-15T16:11:00.393Z,25.19
2022-09-15T16:14:00.494Z,25.2
2022-09-15T16:17:00.386Z,25.21
2022-09-15T16:19:00.442Z,25.2
2022-09-15T16:22:00.415Z,25.21
2022-09-15T16:24:00.461Z,25.21
2022-09-15T16:26:00.463Z,25.22
2022-09-15T16:29:00.431Z,25.24
2022-09-15T16:32:00.437Z,25.24
2022-09-15T16:35:00.401Z,25.24
2022-09-15T16:38:00.461Z,25.26
2022-09-15T16:41:00.444Z,25.29
2022-09-15T16:44:00.433Z,25.29
2022-09-15T16:46:00.759Z,25.29
2022-09-15T16:49:00.414Z,25.31
2022-09-15T16:51:25.120Z,25.3
2022-09-15T16:54:00.441Z,25.28
2022-09-15T16:56:00.567Z,25.29
2022-09-15T16:59:00.818Z,25.28
2022-09-15T17:02:00.526Z,25.24
2022-09-15T17:04:00.449Z,25.25
2022-09-15T17:07:00.453Z,25.25
2022-09-15T17:10:00.401Z,25.21
2022-09-15T17:12:00.500Z,25.2
2022-09-15T17:15:00.410Z,25.12
2022-09-15T17:18:00.436Z,25.04
2022-09-15T17:20:00.465Z,24.99
2022-09-15T17:23:00.467Z,24.95
2022-09-15T17:25:00.423Z,24.95
2022-09-15T17:28:00.419Z,24.94
2022-09-15T17:30:00.434Z,24.88
2022-09-15T17:32:00.453Z,24.82
2022-09-15T17:35:00.417Z,24.77
2022-09-15T17:38:00.407Z,24.78
2022-09-15T17:40:00.488Z,24.77
2022-09-15T17:43:00.412Z,24.72
2022-09-15T17:45:00.409Z,24.66
2022-09-15T17:47:00.429Z,24.64
2022-09-15T17:50:00.430Z,24.62
2022-09-15T17:52:00.450Z,24.61
2022-09-15T17:54:00.463Z,24.49
2022-09-15T17:57:00.434Z,24.51
2022-09-15T18:00:00.478Z,24.31
2022-09-15T18:02:00.525Z,24.25
2022-09-15T18:05:00.477Z,24.23
2022-09-15T18:07:00.499Z,24.17
2022-09-15T18:10:00.481Z,24.14
2022-09-15T18:12:00.453Z,24.05
2022-09-15T18:15:00.487Z,23.92
2022-09-15T18:18:00.466Z,23.79
2022-09-15T18:20:00.471Z,23.79
2022-09-15T18:23:00.436Z,23.8
2022-09-15T18:26:00.482Z,23.76
2022-09-15T18:29:00.523Z,23.66
2022-09-15T18:31:00.526Z,23.71
2022-09-15T18:34:00.472Z,23.79
2022-09-15T18:36:00.484Z,23.72
2022-09-15T18:38:00.506Z,23.6
2022-09-15T18:40:00.531Z,23.52
2022-09-15T18:43:00.455Z,23.38
2022-09-15T18:45:00.485Z,23.32
2022-09-15T18:48:00.446Z,23.35
2022-09-15T18:51:00.497Z,23.31
2022-09-15T18:54:00.459Z,23.3
2022-09-15T18:56:00.466Z,23.18
2022-09-15T18:58:01.217Z,23.12
2022-09-15T19:01:00.474Z,23.04
2022-09-15T19:03:01.195Z,23.13
2022-09-15T19:06:00.468Z,23.22
2022-09-15T19:08:00.478Z,23.15
2022-09-15T19:11:00.461Z,23.05
2022-09-15T19:14:01.465Z,23.06
2022-09-15T19:16:00.508Z,22.97
2022-09-15T19:18:00.469Z,22.91
2022-09-15T19:20:00.454Z,22.87
2022-09-15T19:23:00.461Z,22.96
2022-09-15T19:25:00.469Z,22.87
2022-09-15T19:28:00.509Z,22.79
2022-09-15T19:31:00.597Z,22.62
2022-09-15T19:34:00.472Z,22.6
2022-09-15T19:37:00.486Z,22.62
2022-09-15T19:40:00.540Z,22.66
2022-09-15T19:42:00.459Z,22.69
2022-09-15T19:44:00.494Z,22.66
2022-09-15T19:47:00.506Z,22.68
2022-09-15T19:50:00.476Z,22.63
2022-09-15T19:53:00.500Z,22.6
2022-09-15T19:55:00.518Z,22.54
2022-09-15T19:58:00.474Z,22.47
2022-09-15T20:00:00.507Z,22.47
2022-09-15T20:02:00.655Z,22.44
2022-09-15T20:05:00.462Z,22.29
2022-09-15T20:07:00.510Z,22.23
2022-09-15T20:10:00.493Z,22.27
2022-09-15T20:13:00.483Z,22.32
2022-09-15T20:15:00.492Z,22.3
2022-09-15T20:18:00.469Z,22.25
2022-09-15T20:21:00.504Z,22.31
2022-09-15T20:23:00.523Z,22.32
2022-09-15T20:26:01.558Z,22.28
2022-09-15T20:29:00.475Z,22.26
2022-09-15T20:31:00.578Z,22.27
2022-09-15T20:34:00.490Z,22.34
2022-09-15T20:37:00.502Z,22.4
2022-09-15T20:39:00.541Z,22.42
2022-09-15T20:42:00.497Z,22.39
2022-09-15T20:45:00.510Z,22.28
2022-09-15T20:47:00.541Z,22.24
2022-09-15T20:50:00.462Z,22.23
2022-09-15T20:52:00.506Z,22.2
2022-09-15T20:54:00.497Z,22.17
2022-09-15T20:57:00.508Z,22.14
2022-09-15T21:00:00.512Z,22.05
2022-09-15T21:02:00.510Z,21.99
2022-09-15T21:05:00.499Z,22.01
2022-09-15T21:07:00.541Z,21.96
2022-09-15T21:10:00.475Z,21.91
2022-09-15T21:12:00.504Z,21.95
2022-09-15T21:14:00.507Z,21.96
2022-09-15T21:17:00.483Z,21.95
2022-09-15T21:19:00.590Z,21.9
2022-09-15T21:22:00.525Z,21.89
2022-09-15T21:24:00.476Z,21.86
2022-09-15T21:27:00.542Z,21.91
2022-09-15T21:30:00.501Z,21.97
2022-09-15T21:33:00.514Z,22
2022-09-15T21:35:00.594Z,21.98
2022-09-15T21:38:00.797Z,21.95
2022-09-15T21:41:00.503Z,21.95
2022-09-15T21:43:00.542Z,21.96
2022-09-15T21:45:00.622Z,22.03
2022-09-15T21:48:00.500Z,22.03
2022-09-15T21:51:00.528Z,21.93
2022-09-15T21:54:00.548Z,21.88
2022-09-15T21:59:00.575Z,22.04
2022-09-15T22:02:00.629Z,22.02
2022-09-15T22:05:00.538Z,22.09
2022-09-15T22:08:04.765Z,22.09
2022-09-15T22:10:00.542Z,22.12
2022-09-15T22:13:00.503Z,22.18
2022-09-15T22:15:00.552Z,22.22
2022-09-15T22:18:00.547Z,22.22
2022-09-15T22:21:00.502Z,22.22
2022-09-15T22:24:00.499Z,22.26
2022-09-15T22:26:00.517Z,22.27
2022-09-15T22:29:00.548Z,22.27
2022-09-15T22:32:00.584Z,22.28
2022-09-15T22:34:00.880Z,22.25
2022-09-15T22:37:00.512Z,22.27
2022-09-15T22:39:00.511Z,22.29
2022-09-15T22:42:00.536Z,22.33
2022-09-15T22:45:00.513Z,22.33
2022-09-15T22:48:00.501Z,22.29
2022-09-15T22:50:00.547Z,22.28
2022-09-15T22:53:00.516Z,22.26
2022-09-15T22:55:00.534Z,22.26
2022-09-15T22:58:00.525Z,22.28
2022-09-15T23:01:00.608Z,22.32
2022-09-15T23:04:00.506Z,22.34
2022-09-15T23:06:00.551Z,22.36
2022-09-15T23:09:00.515Z,22.32
2022-09-15T23:11:00.517Z,22.32
2022-09-15T23:14:00.581Z,22.29
2022-09-15T23:17:00.514Z,22.27
2022-09-15T23:19:00.519Z,22.29
2022-09-15T23:22:00.556Z,22.26
2022-09-15T23:25:00.506Z,22.22
2022-09-15T23:28:00.563Z,22.26
2022-09-15T23:31:00.527Z,22.3
2022-09-15T23:34:00.533Z,22.29
2022-09-15T23:37:00.551Z,22.27
2022-09-15T23:40:00.647Z,22.25
2022-09-15T23:42:00.537Z,22.24
2022-09-15T23:45:00.509Z,22.16
2022-09-15T23:47:00.540Z,22.17
2022-09-15T23:50:00.567Z,22.19
2022-09-15T23:53:00.526Z,22.18
2022-09-15T23:55:00.572Z,22.19
2022-09-15T23:58:00.581Z,22.16
